Back to Top

Language: 

My Weather Underground Personal Weather Station Historical Data with Graphs...

Delerius Weather Station Historical Data
Daily Summary for January 12, 2018 Units:  English    Metric   Both
« Previous Day
Next Day »
Daily Weekly Monthly Yearly Custom
  High: Low: Average:
Temperature: 43.3 °F 41.7 °F 42.3 °F
Dew Point: 42.3 °F 40.5 °F 41.3 °F
Humidity: 97 % 94 % 96 %
Wind Speed: 10.0 mph 0.0 mph 3.3 mph
Wind Gust: 18.0 mph - -
Wind:- - SE
Pressure: 30.33 in 30.17 in -
Precipitation: 0.00 in    
Historical Graphs
 
 
Tabular Data for January 12, 2018
Time Temperature Dew Point Pressure Wind Wind Speed Wind Gust Humidity Rainfall Rate (Hourly) solar Conditions
00:03 43.3 °F 42.3 °F 30.30 in Calm     96 % 0.00 in 0 W/m2
00:11 43.3 °F 42.3 °F 30.30 in Calm     96 % 0.00 in 0 W/m2
00:21 43.3 °F 42.3 °F 30.30 in Calm     96 % 0.00 in 0 W/m2
00:26 43.3 °F 42.3 °F 30.30 in Calm     96 % 0.00 in 0 W/m2
00:31 43.2 °F 42.1 °F 30.30 in Calm     96 % 0.00 in 0 W/m2
00:36 43.2 °F 42.1 °F 30.30 in Calm     96 % 0.00 in 0 W/m2
00:42 43.2 °F 42.1 °F 30.30 in Calm     96 % 0.00 in 0 W/m2
00:47 43.2 °F 42.1 °F 30.30 in Calm     96 % 0.00 in 0 W/m2
00:53 43.2 °F 42.1 °F 30.30 in Calm     96 % 0.00 in 0 W/m2
01:09 43.3 °F 42.3 °F 30.30 in Calm   2.0 mph 96 % 0.00 in 0 W/m2
01:22 43.3 °F 42.3 °F 30.30 in Calm     96 % 0.00 in 0 W/m2
01:37 43.3 °F 42.3 °F 30.31 in Calm   1.0 mph 96 % 0.00 in 0 W/m2
01:44 43.3 °F 42.3 °F 30.31 in Calm     96 % 0.00 in 0 W/m2
01:48 43.3 °F 42.3 °F 30.31 in Calm     96 % 0.00 in 0 W/m2
01:53 43.3 °F 42.3 °F 30.31 in Calm     96 % 0.00 in 0 W/m2
02:17 43.2 °F 42.1 °F 30.31 in Calm     96 % 0.00 in 0 W/m2
02:22 43.2 °F 42.1 °F 30.31 in Calm     96 % 0.00 in 0 W/m2
02:44 43.2 °F 42.1 °F 30.32 in Calm     96 % 0.00 in 0 W/m2
03:08 43.0 °F 41.9 °F 30.31 in Calm     96 % 0.00 in 0 W/m2
03:13 43.0 °F 41.9 °F 30.31 in Calm     96 % 0.00 in 0 W/m2
03:23 43.0 °F 41.9 °F 30.31 in Calm     96 % 0.00 in 0 W/m2
03:36 42.8 °F 41.7 °F 30.31 in Calm     96 % 0.00 in 0 W/m2
03:42 42.8 °F 41.7 °F 30.31 in Calm     96 % 0.00 in 0 W/m2
03:48 42.6 °F 41.6 °F 30.31 in Calm     96 % 0.00 in 0 W/m2
04:01 42.6 °F 41.6 °F 30.31 in Calm     96 % 0.00 in 0 W/m2
04:08 42.4 °F 41.4 °F 30.31 in Calm     96 % 0.00 in 0 W/m2
04:26 42.3 °F 41.2 °F 30.31 in Calm     96 % 0.00 in 0 W/m2
04:41 42.1 °F 41.0 °F 30.31 in Calm     96 % 0.00 in 0 W/m2
04:47 42.1 °F 41.0 °F 30.31 in Calm     96 % 0.00 in 0 W/m2
04:55 42.1 °F 41.0 °F 30.31 in Calm     96 % 0.00 in 0 W/m2
05:05 42.1 °F 41.0 °F 30.31 in Calm     96 % 0.00 in 0 W/m2
05:10 42.1 °F 41.0 °F 30.31 in Calm     96 % 0.00 in 0 W/m2
05:20 42.1 °F 41.0 °F 30.31 in ENE 1.0 mph 2.0 mph 96 % 0.00 in 0 W/m2
05:33 42.1 °F 41.3 °F 30.30 in Calm     97 % 0.00 in 0 W/m2
05:38 42.1 °F 41.3 °F 30.30 in Calm   2.0 mph 97 % 0.00 in 0 W/m2
05:52 42.1 °F 41.3 °F 30.30 in Calm   2.0 mph 97 % 0.00 in 0 W/m2
06:02 42.1 °F 41.3 °F 30.31 in ENE 1.0 mph 5.0 mph 97 % 0.00 in 0 W/m2
06:18 42.1 °F 41.3 °F 30.31 in East 1.0 mph 4.0 mph 97 % 0.00 in 0 W/m2
06:26 42.1 °F 41.3 °F 30.30 in East 1.0 mph 4.0 mph 97 % 0.00 in 0 W/m2
06:34 42.1 °F 41.3 °F 30.30 in ESE 2.0 mph 6.0 mph 97 % 0.00 in 0 W/m2
06:47 42.1 °F 41.3 °F 30.30 in East 1.0 mph 3.0 mph 97 % 0.00 in 0 W/m2
07:00 42.1 °F 41.3 °F 30.31 in ESE 2.0 mph 6.0 mph 97 % 0.00 in 0 W/m2
07:11 42.1 °F 41.3 °F 30.31 in SE 2.0 mph 5.0 mph 97 % 0.00 in 0 W/m2
07:19 42.1 °F 41.3 °F 30.30 in ESE 2.0 mph 4.0 mph 97 % 0.00 in 0 W/m2
07:41 42.1 °F 41.3 °F 30.31 in ESE 1.0 mph 3.0 mph 97 % 0.00 in 0 W/m2
07:48 42.1 °F 41.3 °F 30.32 in SE 3.0 mph 5.0 mph 97 % 0.00 in 0 W/m2
07:53 42.1 °F 41.3 °F 30.32 in Calm     97 % 0.00 in 0 W/m2
08:06 42.1 °F 41.3 °F 30.32 in Calm     97 % 0.00 in 0 W/m2
08:31 42.1 °F 41.3 °F 30.32 in SSE 1.0 mph 3.0 mph 97 % 0.00 in 0 W/m2
08:38 42.1 °F 41.3 °F 30.32 in SE 3.0 mph 4.0 mph 97 % 0.00 in 0 W/m2
08:54 42.1 °F 41.3 °F 30.32 in ESE 3.0 mph 5.0 mph 97 % 0.00 in 9 W/m2
09:00 41.9 °F 41.1 °F 30.31 in SE 4.0 mph 6.0 mph 97 % 0.00 in 11 W/m2
09:12 41.9 °F 41.1 °F 30.32 in SE 4.0 mph 6.0 mph 97 % 0.00 in 12 W/m2
09:18 41.9 °F 41.1 °F 30.32 in SE 2.0 mph 5.0 mph 97 % 0.00 in 16 W/m2
09:26 42.1 °F 41.3 °F 30.32 in ESE 4.0 mph 6.0 mph 97 % 0.00 in 16 W/m2
09:34 42.1 °F 41.3 °F 30.32 in ESE 2.0 mph 5.0 mph 97 % 0.00 in 18 W/m2
09:44 42.1 °F 41.3 °F 30.32 in SE 2.0 mph 5.0 mph 97 % 0.00 in 19 W/m2
09:57 41.9 °F 41.1 °F 30.32 in SE 3.0 mph 5.0 mph 97 % 0.00 in 19 W/m2
10:05 41.9 °F 41.1 °F 30.33 in SE 3.0 mph 6.0 mph 97 % 0.00 in 12 W/m2
10:15 41.7 °F 40.9 °F 30.33 in SE 6.0 mph 8.0 mph 97 % 0.00 in 21 W/m2
10:22 41.7 °F 40.9 °F 30.32 in SE 4.0 mph 6.0 mph 97 % 0.00 in 30 W/m2
10:32 41.7 °F 40.9 °F 30.32 in SE 3.0 mph 5.0 mph 97 % 0.00 in 51 W/m2
10:41 41.9 °F 41.1 °F 30.32 in SE 3.0 mph 5.0 mph 97 % 0.00 in 67 W/m2
10:49 42.1 °F 41.3 °F 30.31 in SSE 3.0 mph 6.0 mph 97 % 0.00 in 77 W/m2
11:07 42.1 °F 41.3 °F 30.31 in SSE 1.0 mph 4.0 mph 97 % 0.00 in 69 W/m2
11:13 42.1 °F 41.3 °F 30.31 in Calm   2.0 mph 97 % 0.00 in 91 W/m2
11:22 42.3 °F 41.5 °F 30.31 in SSE 1.0 mph 4.0 mph 97 % 0.00 in 77 W/m2
11:33 42.3 °F 41.5 °F 30.30 in SSE 5.0 mph 8.0 mph 97 % 0.00 in 54 W/m2
11:42 42.3 °F 41.5 °F 30.30 in SE 6.0 mph 8.0 mph 97 % 0.00 in 67 W/m2
11:47 42.3 °F 41.5 °F 30.30 in SE 6.0 mph 9.0 mph 97 % 0.00 in 83 W/m2
11:53 42.3 °F 41.5 °F 30.30 in ESE 2.0 mph 5.0 mph 97 % 0.00 in 58 W/m2
11:59 42.4 °F 41.6 °F 30.29 in SE 4.0 mph 7.0 mph 97 % 0.00 in 49 W/m2
12:05 42.4 °F 41.6 °F 30.29 in ESE 5.0 mph 7.0 mph 97 % 0.00 in 79 W/m2
12:15 42.4 °F 41.6 °F 30.29 in SE 3.0 mph 5.0 mph 97 % 0.00 in 42 W/m2
12:25 42.4 °F 41.6 °F 30.29 in SSE 6.0 mph 10.0 mph 97 % 0.00 in 54 W/m2
12:40 42.4 °F 41.4 °F 30.28 in ESE 6.0 mph 10.0 mph 96 % 0.00 in 56 W/m2
13:04 42.6 °F 41.6 °F 30.27 in SE 2.0 mph 5.0 mph 96 % 0.00 in 21 W/m2
13:12 42.6 °F 41.6 °F 30.27 in ESE 5.0 mph 7.0 mph 96 % 0.00 in 18 W/m2
13:17 42.6 °F 41.6 °F 30.27 in ESE 5.0 mph 8.0 mph 96 % 0.00 in 16 W/m2
13:25 42.4 °F 41.1 °F 30.26 in ESE 4.0 mph 7.0 mph 95 % 0.00 in 26 W/m2
13:35 42.4 °F 41.1 °F 30.26 in ESE 5.0 mph 8.0 mph 95 % 0.00 in 12 W/m2
13:49 42.3 °F 40.9 °F 30.26 in ESE 5.0 mph 8.0 mph 95 % 0.00 in 21 W/m2
13:55 42.3 °F 40.9 °F 30.26 in SE 4.0 mph 7.0 mph 95 % 0.00 in 14 W/m2
14:06 42.3 °F 40.9 °F 30.26 in ESE 6.0 mph 9.0 mph 95 % 0.00 in 9 W/m2
14:23 42.1 °F 41.0 °F 30.25 in ESE 4.0 mph 7.0 mph 96 % 0.00 in 5 W/m2
14:38 42.1 °F 41.0 °F 30.26 in SE 5.0 mph 7.0 mph 96 % 0.00 in 12 W/m2
14:49 42.1 °F 41.0 °F 30.26 in SE 5.0 mph 7.0 mph 96 % 0.00 in 16 W/m2
15:00 42.3 °F 41.2 °F 30.26 in ESE 3.0 mph 7.0 mph 96 % 0.00 in 33 W/m2
15:05 42.3 °F 41.2 °F 30.26 in ESE 3.0 mph 8.0 mph 96 % 0.00 in 37 W/m2
15:12 42.4 °F 41.4 °F 30.25 in ESE 5.0 mph 7.0 mph 96 % 0.00 in 28 W/m2
15:36 42.3 °F 41.2 °F 30.24 in ESE 2.0 mph 5.0 mph 96 % 0.00 in 14 W/m2
15:41 42.3 °F 41.2 °F 30.24 in ESE 4.0 mph 6.0 mph 96 % 0.00 in 14 W/m2
15:51 42.3 °F 41.2 °F 30.24 in ESE 3.0 mph 7.0 mph 96 % 0.00 in 11 W/m2
15:57 42.1 °F 41.0 °F 30.24 in ESE 4.0 mph 6.0 mph 96 % 0.00 in 5 W/m2
16:02 42.1 °F 41.0 °F 30.24 in ESE 4.0 mph 6.0 mph 96 % 0.00 in 0 W/m2
16:18 42.1 °F 41.0 °F 30.24 in ESE 5.0 mph 7.0 mph 96 % 0.00 in 0 W/m2
16:28 42.1 °F 41.0 °F 30.24 in ESE 5.0 mph 8.0 mph 96 % 0.00 in 0 W/m2
16:40 42.1 °F 41.0 °F 30.24 in ESE 3.0 mph 6.0 mph 96 % 0.00 in 0 W/m2
16:56 42.1 °F 41.0 °F 30.24 in SE 5.0 mph 7.0 mph 96 % 0.00 in 0 W/m2
17:04 42.1 °F 41.0 °F 30.24 in ESE 5.0 mph 7.0 mph 96 % 0.00 in 0 W/m2
17:18 42.1 °F 41.0 °F 30.24 in East 4.0 mph 6.0 mph 96 % 0.00 in 0 W/m2
17:43 42.1 °F 41.0 °F 30.24 in ESE 4.0 mph 7.0 mph 96 % 0.00 in 0 W/m2
17:56 42.1 °F 41.0 °F 30.24 in ESE 5.0 mph 6.0 mph 96 % 0.00 in 0 W/m2
18:13 42.1 °F 41.0 °F 30.23 in ESE 7.0 mph 10.0 mph 96 % 0.00 in 0 W/m2
18:29 42.1 °F 41.0 °F 30.23 in ESE 7.0 mph 11.0 mph 96 % 0.00 in 0 W/m2
18:44 41.9 °F 40.8 °F 30.23 in SE 5.0 mph 9.0 mph 96 % 0.00 in 0 W/m2
18:53 41.7 °F 40.7 °F 30.23 in SE 4.0 mph 7.0 mph 96 % 0.00 in 0 W/m2
19:01 41.7 °F 40.7 °F 30.23 in SE 6.0 mph 10.0 mph 96 % 0.00 in 0 W/m2
19:13 41.7 °F 40.7 °F 30.23 in SE 6.0 mph 7.0 mph 96 % 0.00 in 0 W/m2
19:29 41.7 °F 40.7 °F 30.23 in SE 7.0 mph 12.0 mph 96 % 0.00 in 0 W/m2
19:36 41.7 °F 40.7 °F 30.22 in SE 4.0 mph 7.0 mph 96 % 0.00 in 0 W/m2
19:41 41.7 °F 40.7 °F 30.22 in ESE 7.0 mph 10.0 mph 96 % 0.00 in 0 W/m2
19:58 41.7 °F 40.7 °F 30.22 in SE 7.0 mph 10.0 mph 96 % 0.00 in 0 W/m2
20:03 41.7 °F 40.7 °F 30.22 in SE 8.0 mph 13.0 mph 96 % 0.00 in 0 W/m2
20:12 41.9 °F 40.8 °F 30.22 in SE 7.0 mph 11.0 mph 96 % 0.00 in 0 W/m2
20:17 41.9 °F 40.8 °F 30.22 in SE 6.0 mph 10.0 mph 96 % 0.00 in 0 W/m2
20:40 42.1 °F 41.0 °F 30.21 in ESE 8.0 mph 10.0 mph 96 % 0.00 in 0 W/m2
20:46 42.1 °F 41.0 °F 30.21 in SE 6.0 mph 10.0 mph 96 % 0.00 in 0 W/m2
21:03 41.9 °F 40.6 °F 30.21 in SE 7.0 mph 13.0 mph 95 % 0.00 in 0 W/m2
21:08 42.1 °F 40.8 °F 30.21 in SE 7.0 mph 12.0 mph 95 % 0.00 in 0 W/m2
21:18 42.1 °F 40.8 °F 30.21 in SE 6.0 mph 11.0 mph 95 % 0.00 in 0 W/m2
21:23 41.9 °F 40.6 °F 30.21 in SE 10.0 mph 18.0 mph 95 % 0.00 in 0 W/m2
21:33 41.9 °F 40.6 °F 30.21 in SE 7.0 mph 11.0 mph 95 % 0.00 in 0 W/m2
21:43 41.9 °F 40.6 °F 30.20 in SE 6.0 mph 9.0 mph 95 % 0.00 in 0 W/m2
21:55 42.1 °F 40.8 °F 30.19 in ESE 6.0 mph 10.0 mph 95 % 0.00 in 0 W/m2
22:02 42.1 °F 40.8 °F 30.19 in SE 7.0 mph 11.0 mph 95 % 0.00 in 0 W/m2
22:11 42.1 °F 40.8 °F 30.19 in SE 7.0 mph 10.0 mph 95 % 0.00 in 0 W/m2
22:21 42.1 °F 40.8 °F 30.18 in SE 9.0 mph 13.0 mph 95 % 0.00 in 0 W/m2
22:36 42.1 °F 40.8 °F 30.18 in SE 5.0 mph 9.0 mph 95 % 0.00 in 0 W/m2
22:52 42.1 °F 40.8 °F 30.18 in SE 8.0 mph 12.0 mph 95 % 0.00 in 0 W/m2
23:05 42.1 °F 40.5 °F 30.18 in SE 8.0 mph 10.0 mph 94 % 0.00 in 0 W/m2
23:18 42.3 °F 40.7 °F 30.17 in SE 7.0 mph 10.0 mph 94 % 0.00 in 0 W/m2
23:33 42.3 °F 40.7 °F 30.17 in SE 7.0 mph 12.0 mph 94 % 0.00 in 0 W/m2
23:39 42.3 °F 40.7 °F 30.17 in SE 7.0 mph 9.0 mph 94 % 0.00 in 0 W/m2
23:48 42.3 °F 40.7 °F 30.17 in SE 6.0 mph 9.0 mph 94 % 0.00 in 0 W/m2
23:55 42.3 °F 40.7 °F 30.17 in SE 6.0 mph 9.0 mph 94 % 0.00 in 0 W/m2
Delerius-Weather
Compliments of Weather Underground - 1.5 mb

Data updates at regular intervals.